Pagrindinis puslapis
METAR-TAF:

METAR-TAF

Oro uostai :

Ordu, Turkija

platuma: 40-58-00N, ilguma: 38-04-48E, Aukštis: 5 m

Dabartinis oras

Ataskaita buvo paskelbta 50 minutes, ne 10:50 UTC
Vėjas 7 kt iš Pietryčių
Temperatūra 18°C
Drėgmė 68%
Slėgis 1011 hPa
Matomumas 10 km arba daugiau
Išsisklaidę debesys ne aukštis 3000 ft
Su prošvaistėmis ne aukštis 9000 ft
lietus

METAR: LTCB 281050Z 14007KT 9999 -SHRA SCT030 BKN090 18/12 Q1011

Laikas: 14:40 (11:40 UTC)

Prognozė

Ataskaita buvo paskelbta 1 valandą ir 0 minutes, ne 10:40 UTC
Prognozė galioja nuo 28 metu 12 UTC su 28 metu 21 UTC
Vėjas 2 kt nuo kintamojo kryptimis
Matomumas 10 km arba daugiau
Išsisklaidę debesys ne aukštis 3300 ft
Su prošvaistėmis ne aukštis 9000 ft
Laikinai
nuo 28 metu 12 UTC su 28 metu 15 UTC
Vėjas 15 kt iš Rytų/Pietryčių
lietus

TAF: LTCB 281040Z 2812/2821 VRB02KT 9999 SCT033 BKN090 TEMPO 2812/2815 12015KT -SHRA

Orai ataskaitas ir orų prognozės (METAR, TAF).

turimą stotys yra geltonos ir raudonos taškus žemėlapyje.

Perkelti pele per norėdami pamatyti stoties vardą.

Tada spustelėkite, norėdami matyti oro stebėjimo ir prognozės.

Norėdami pakeisti žemėlapį: spustelėkite ant žalios mygtukų su juodo kryžiaus žemyn,; žalią mygtuką su brūkšneliu, jei norite nutolinti; arba žalių rodyklių gretimoms žemėlapius.


METAR-TAF: